sensor_id;sensor_type;location;lat;lon;timestamp;pressure;altitude;pressure_sealevel;temperature;humidity
43420;BME280;29017;51.514;-0.178;2023-07-28T00:01:09;100081.38;;;20.95;99.58
43420;BME280;29017;51.514;-0.178;2023-07-28T00:03:36;100089.41;;;20.95;99.68
43420;BME280;29017;51.514;-0.178;2023-07-28T00:06:03;100084.28;;;20.93;98.55
43420;BME280;29017;51.514;-0.178;2023-07-28T00:08:30;100090.47;;;20.93;97.46
43420;BME280;29017;51.514;-0.178;2023-07-28T00:10:57;100088.50;;;20.89;97.25
43420;BME280;29017;51.514;-0.178;2023-07-28T00:13:24;100079.34;;;20.85;96.92
43420;BME280;29017;51.514;-0.178;2023-07-28T00:15:51;100084.34;;;20.81;96.55
43420;BME280;29017;51.514;-0.178;2023-07-28T00:18:18;100077.88;;;20.77;95.32
43420;BME280;29017;51.514;-0.178;2023-07-28T00:20:48;100086.34;;;20.74;94.81
43420;BME280;29017;51.514;-0.178;2023-07-28T00:23:15;100083.56;;;20.69;94.36
43420;BME280;29017;51.514;-0.178;2023-07-28T00:25:42;100090.66;;;20.64;94.20
43420;BME280;29017;51.514;-0.178;2023-07-28T00:28:09;100090.34;;;20.60;95.06
43420;BME280;29017;51.514;-0.178;2023-07-28T00:30:36;100083.38;;;20.59;94.43
43420;BME280;29017;51.514;-0.178;2023-07-28T00:33:03;100074.53;;;20.59;94.25
43420;BME280;29017;51.514;-0.178;2023-07-28T00:35:30;100082.00;;;20.57;94.22
43420;BME280;29017;51.514;-0.178;2023-07-28T00:37:57;100081.72;;;20.58;94.77
43420;BME280;29017;51.514;-0.178;2023-07-28T00:40:24;100076.88;;;20.55;94.53
43420;BME280;29017;51.514;-0.178;2023-07-28T00:42:51;100083.50;;;20.53;94.32
43420;BME280;29017;51.514;-0.178;2023-07-28T00:45:18;100083.16;;;20.49;93.78
43420;BME280;29017;51.514;-0.178;2023-07-28T00:47:45;100080.72;;;20.47;94.77
43420;BME280;29017;51.514;-0.178;2023-07-28T00:50:13;100088.63;;;20.42;94.52
43420;BME280;29017;51.514;-0.178;2023-07-28T00:52:40;100085.38;;;20.40;94.07
43420;BME280;29017;51.514;-0.178;2023-07-28T00:55:07;100090.97;;;20.39;94.52
43420;BME280;29017;51.514;-0.178;2023-07-28T00:57:34;100091.19;;;20.37;94.89
43420;BME280;29017;51.514;-0.178;2023-07-28T01:00:02;100097.03;;;20.34;94.60
43420;BME280;29017;51.514;-0.178;2023-07-28T01:02:29;100094.56;;;20.33;95.23
43420;BME280;29017;51.514;-0.178;2023-07-28T01:04:56;100086.19;;;20.29;94.29
43420;BME280;29017;51.514;-0.178;2023-07-28T01:07:36;100091.75;;;20.28;94.18
43420;BME280;29017;51.514;-0.178;2023-07-28T01:10:11;100095.25;;;20.28;94.58
43420;BME280;29017;51.514;-0.178;2023-07-28T01:12:40;100095.47;;;20.27;94.31
43420;BME280;29017;51.514;-0.178;2023-07-28T01:15:07;100083.41;;;20.24;94.26
43420;BME280;29017;51.514;-0.178;2023-07-28T01:17:34;100091.66;;;20.23;94.40
43420;BME280;29017;51.514;-0.178;2023-07-28T01:20:02;100088.41;;;20.21;94.28
43420;BME280;29017;51.514;-0.178;2023-07-28T01:26:06;100092.00;;;20.15;94.31
43420;BME280;29017;51.514;-0.178;2023-07-28T01:28:05;100085.50;;;20.11;94.42
43420;BME280;29017;51.514;-0.178;2023-07-28T01:30:33;100089.44;;;20.08;94.13
43420;BME280;29017;51.514;-0.178;2023-07-28T01:33:00;100093.16;;;20.07;93.72
43420;BME280;29017;51.514;-0.178;2023-07-28T01:35:27;100098.28;;;20.08;94.23
43420;BME280;29017;51.514;-0.178;2023-07-28T01:37:54;100102.81;;;20.08;94.35
43420;BME280;29017;51.514;-0.178;2023-07-28T01:40:21;100101.78;;;20.09;94.04
43420;BME280;29017;51.514;-0.178;2023-07-28T01:42:48;100102.00;;;20.07;94.28
43420;BME280;29017;51.514;-0.178;2023-07-28T01:45:16;100097.69;;;20.06;94.30
43420;BME280;29017;51.514;-0.178;2023-07-28T01:47:43;100100.94;;;20.08;95.03
43420;BME280;29017;51.514;-0.178;2023-07-28T01:50:10;100108.38;;;20.06;95.24
43420;BME280;29017;51.514;-0.178;2023-07-28T01:52:37;100103.28;;;20.05;94.63
43420;BME280;29017;51.514;-0.178;2023-07-28T01:55:04;100103.84;;;20.07;93.97
43420;BME280;29017;51.514;-0.178;2023-07-28T01:57:33;100106.53;;;20.07;94.29
43420;BME280;29017;51.514;-0.178;2023-07-28T02:00:01;100107.59;;;20.06;93.95
43420;BME280;29017;51.514;-0.178;2023-07-28T02:02:30;100103.03;;;20.06;94.31
43420;BME280;29017;51.514;-0.178;2023-07-28T02:04:57;100100.34;;;20.06;94.03
43420;BME280;29017;51.514;-0.178;2023-07-28T02:07:24;100093.03;;;20.02;93.83
43420;BME280;29017;51.514;-0.178;2023-07-28T02:09:51;100098.38;;;20.02;93.45
43420;BME280;29017;51.514;-0.178;2023-07-28T02:12:18;100096.41;;;19.97;93.69
43420;BME280;29017;51.514;-0.178;2023-07-28T02:14:45;100092.94;;;19.97;94.06
43420;BME280;29017;51.514;-0.178;2023-07-28T02:17:12;100101.31;;;20.00;94.59
43420;BME280;29017;51.514;-0.178;2023-07-28T02:19:39;100093.53;;;19.99;93.87
43420;BME280;29017;51.514;-0.178;2023-07-28T02:28:12;100085.88;;;19.91;94.18
43420;BME280;29017;51.514;-0.178;2023-07-28T02:30:39;100085.50;;;19.87;94.07
43420;BME280;29017;51.514;-0.178;2023-07-28T02:33:06;100083.31;;;19.84;94.39
43420;BME280;29017;51.514;-0.178;2023-07-28T02:35:33;100095.84;;;19.84;94.42
43420;BME280;29017;51.514;-0.178;2023-07-28T02:38:01;100085.84;;;19.79;94.74
43420;BME280;29017;51.514;-0.178;2023-07-28T02:40:29;100098.41;;;19.79;94.24
43420;BME280;29017;51.514;-0.178;2023-07-28T02:42:56;100087.94;;;19.77;94.43
43420;BME280;29017;51.514;-0.178;2023-07-28T02:45:23;100095.38;;;19.75;94.98
43420;BME280;29017;51.514;-0.178;2023-07-28T02:47:51;100094.78;;;19.73;94.83
43420;BME280;29017;51.514;-0.178;2023-07-28T02:50:18;100100.34;;;19.72;94.62
43420;BME280;29017;51.514;-0.178;2023-07-28T02:52:45;100091.53;;;19.71;94.63
43420;BME280;29017;51.514;-0.178;2023-07-28T02:55:12;100103.28;;;19.70;94.89
43420;BME280;29017;51.514;-0.178;2023-07-28T02:57:39;100095.25;;;19.70;94.24
43420;BME280;29017;51.514;-0.178;2023-07-28T03:00:07;100087.25;;;19.70;94.79
43420;BME280;29017;51.514;-0.178;2023-07-28T03:02:37;100085.41;;;19.71;94.45
43420;BME280;29017;51.514;-0.178;2023-07-28T03:05:04;100086.19;;;19.71;94.14
43420;BME280;29017;51.514;-0.178;2023-07-28T03:07:32;100080.84;;;19.71;94.11
43420;BME280;29017;51.514;-0.178;2023-07-28T03:09:59;100089.91;;;19.70;93.95
43420;BME280;29017;51.514;-0.178;2023-07-28T03:12:26;100085.63;;;19.69;93.45
43420;BME280;29017;51.514;-0.178;2023-07-28T03:14:53;100092.59;;;19.70;93.67
43420;BME280;29017;51.514;-0.178;2023-07-28T03:17:20;100087.47;;;19.69;93.34
43420;BME280;29017;51.514;-0.178;2023-07-28T03:19:47;100091.41;;;19.66;92.47
43420;BME280;29017;51.514;-0.178;2023-07-28T03:22:14;100089.19;;;19.63;92.57
43420;BME280;29017;51.514;-0.178;2023-07-28T03:24:41;100090.25;;;19.62;92.25
43420;BME280;29017;51.514;-0.178;2023-07-28T03:27:09;100095.56;;;19.62;91.76
43420;BME280;29017;51.514;-0.178;2023-07-28T03:29:36;100107.28;;;19.61;91.66
43420;BME280;29017;51.514;-0.178;2023-07-28T03:32:03;100106.50;;;19.60;91.74
43420;BME280;29017;51.514;-0.178;2023-07-28T03:34:30;100107.16;;;19.56;91.31
43420;BME280;29017;51.514;-0.178;2023-07-28T03:36:57;100112.75;;;19.54;91.35
43420;BME280;29017;51.514;-0.178;2023-07-28T03:39:24;100106.59;;;19.54;92.19
43420;BME280;29017;51.514;-0.178;2023-07-28T03:41:51;100108.22;;;19.55;91.57
43420;BME280;29017;51.514;-0.178;2023-07-28T03:44:18;100107.16;;;19.56;91.83
43420;BME280;29017;51.514;-0.178;2023-07-28T03:46:46;100108.34;;;19.60;92.12
43420;BME280;29017;51.514;-0.178;2023-07-28T03:49:13;100105.09;;;19.58;91.16
43420;BME280;29017;51.514;-0.178;2023-07-28T03:51:40;100112.06;;;19.59;90.64
43420;BME280;29017;51.514;-0.178;2023-07-28T03:54:07;100106.72;;;19.59;90.87
43420;BME280;29017;51.514;-0.178;2023-07-28T03:56:35;100097.69;;;19.60;90.92
43420;BME280;29017;51.514;-0.178;2023-07-28T03:59:02;100103.59;;;19.62;91.31
43420;BME280;29017;51.514;-0.178;2023-07-28T04:01:29;100107.28;;;19.61;91.34
43420;BME280;29017;51.514;-0.178;2023-07-28T04:03:57;100102.19;;;19.59;90.77
43420;BME280;29017;51.514;-0.178;2023-07-28T04:06:48;100107.63;;;19.53;90.44
43420;BME280;29017;51.514;-0.178;2023-07-28T04:09:20;100103.59;;;19.50;91.07
43420;BME280;29017;51.514;-0.178;2023-07-28T04:11:48;100101.94;;;19.49;90.58
43420;BME280;29017;51.514;-0.178;2023-07-28T04:14:15;100104.97;;;19.53;91.04
43420;BME280;29017;51.514;-0.178;2023-07-28T04:16:42;100108.22;;;19.55;90.88
43420;BME280;29017;51.514;-0.178;2023-07-28T04:19:09;100103.59;;;19.50;90.57
43420;BME280;29017;51.514;-0.178;2023-07-28T04:21:36;100111.00;;;19.48;89.77
43420;BME280;29017;51.514;-0.178;2023-07-28T04:24:08;100112.63;;;19.49;90.04
43420;BME280;29017;51.514;-0.178;2023-07-28T04:26:36;100112.38;;;19.51;90.28
43420;BME280;29017;51.514;-0.178;2023-07-28T04:29:03;100121.81;;;19.53;90.87
43420;BME280;29017;51.514;-0.178;2023-07-28T04:31:30;100115.44;;;19.54;90.67
43420;BME280;29017;51.514;-0.178;2023-07-28T04:33:57;100120.97;;;19.53;90.07
43420;BME280;29017;51.514;-0.178;2023-07-28T04:36:30;100122.28;;;19.50;89.73
43420;BME280;29017;51.514;-0.178;2023-07-28T04:38:58;100125.72;;;19.51;90.13
43420;BME280;29017;51.514;-0.178;2023-07-28T04:41:25;100125.97;;;19.49;90.40
43420;BME280;29017;51.514;-0.178;2023-07-28T04:43:52;100127.81;;;19.49;90.90
43420;BME280;29017;51.514;-0.178;2023-07-28T04:46:20;100133.72;;;19.51;90.48
43420;BME280;29017;51.514;-0.178;2023-07-28T04:48:47;100124.81;;;19.45;89.59
43420;BME280;29017;51.514;-0.178;2023-07-28T04:51:14;100133.22;;;19.42;89.56
43420;BME280;29017;51.514;-0.178;2023-07-28T04:53:41;100133.22;;;19.42;89.95
43420;BME280;29017;51.514;-0.178;2023-07-28T04:56:08;100134.66;;;19.45;90.46
43420;BME280;29017;51.514;-0.178;2023-07-28T04:58:35;100137.34;;;19.45;89.83
43420;BME280;29017;51.514;-0.178;2023-07-28T05:01:02;100134.66;;;19.45;89.65
43420;BME280;29017;51.514;-0.178;2023-07-28T05:03:30;100123.75;;;19.46;90.10
43420;BME280;29017;51.514;-0.178;2023-07-28T05:05:57;100132.00;;;19.45;89.31
43420;BME280;29017;51.514;-0.178;2023-07-28T05:08:24;100126.66;;;19.45;89.20
43420;BME280;29017;51.514;-0.178;2023-07-28T05:10:51;100137.34;;;19.45;89.67
43420;BME280;29017;51.514;-0.178;2023-07-28T05:13:18;100136.53;;;19.44;89.38
43420;BME280;29017;51.514;-0.178;2023-07-28T05:15:45;100143.50;;;19.45;89.22
43420;BME280;29017;51.514;-0.178;2023-07-28T05:18:12;100137.09;;;19.46;89.00
43420;BME280;29017;51.514;-0.178;2023-07-28T05:20:39;100136.72;;;19.43;88.16
43420;BME280;29017;51.514;-0.178;2023-07-28T05:23:06;100126.50;;;19.40;88.24
43420;BME280;29017;51.514;-0.178;2023-07-28T05:25:33;100136.91;;;19.41;88.30
43420;BME280;29017;51.514;-0.178;2023-07-28T05:28:00;100142.03;;;19.43;88.59
43420;BME280;29017;51.514;-0.178;2023-07-28T05:30:27;100140.41;;;19.42;88.33
43420;BME280;29017;51.514;-0.178;2023-07-28T05:32:57;100146.34;;;19.44;88.52
43420;BME280;29017;51.514;-0.178;2023-07-28T05:35:24;100138.34;;;19.44;87.80
43420;BME280;29017;51.514;-0.178;2023-07-28T05:37:51;100139.38;;;19.43;88.03
43420;BME280;29017;51.514;-0.178;2023-07-28T05:40:18;100141.84;;;19.44;87.73
43420;BME280;29017;51.514;-0.178;2023-07-28T05:42:45;100146.72;;;19.47;87.81
43420;BME280;29017;51.514;-0.178;2023-07-28T05:45:12;100140.00;;;19.45;87.76
43420;BME280;29017;51.514;-0.178;2023-07-28T05:47:39;100146.34;;;19.44;87.93
43420;BME280;29017;51.514;-0.178;2023-07-28T05:50:07;100155.19;;;19.44;88.06
43420;BME280;29017;51.514;-0.178;2023-07-28T05:52:34;100148.00;;;19.45;87.27
43420;BME280;29017;51.514;-0.178;2023-07-28T05:55:01;100154.94;;;19.46;88.45
43420;BME280;29017;51.514;-0.178;2023-07-28T05:57:28;100154.94;;;19.46;87.42
43420;BME280;29017;51.514;-0.178;2023-07-28T05:59:55;100165.41;;;19.47;87.49
43420;BME280;29017;51.514;-0.178;2023-07-28T06:02:22;100157.41;;;19.47;87.64
43420;BME280;29017;51.514;-0.178;2023-07-28T06:04:49;100158.44;;;19.46;87.70
43420;BME280;29017;51.514;-0.178;2023-07-28T06:07:16;100154.56;;;19.42;87.25
43420;BME280;29017;51.514;-0.178;2023-07-28T06:09:43;100153.75;;;19.42;87.50
43420;BME280;29017;51.514;-0.178;2023-07-28T06:12:10;100155.59;;;19.41;88.05
43420;BME280;29017;51.514;-0.178;2023-07-28T06:14:37;100163.19;;;19.44;88.39
43420;BME280;29017;51.514;-0.178;2023-07-28T06:17:05;100166.69;;;19.45;88.92
43420;BME280;29017;51.514;-0.178;2023-07-28T06:19:32;100162.97;;;19.46;89.07
43420;BME280;29017;51.514;-0.178;2023-07-28T06:22:01;100166.69;;;19.45;89.07
43420;BME280;29017;51.514;-0.178;2023-07-28T06:24:29;100158.44;;;19.46;89.42
43420;BME280;29017;51.514;-0.178;2023-07-28T06:26:57;100164.84;;;19.45;88.65
43420;BME280;29017;51.514;-0.178;2023-07-28T06:29:24;100164.03;;;19.45;88.18
43420;BME280;29017;51.514;-0.178;2023-07-28T06:31:51;100158.53;;;19.40;88.04
43420;BME280;29017;51.514;-0.178;2023-07-28T06:34:18;100155.94;;;19.33;87.73
43420;BME280;29017;51.514;-0.178;2023-07-28T06:36:45;100163.72;;;19.35;88.48
43420;BME280;29017;51.514;-0.178;2023-07-28T06:39:12;100161.63;;;19.37;89.17
43420;BME280;29017;51.514;-0.178;2023-07-28T06:41:39;100159.31;;;19.40;87.89
43420;BME280;29017;51.514;-0.178;2023-07-28T06:44:06;100159.50;;;19.45;87.70
43420;BME280;29017;51.514;-0.178;2023-07-28T06:46:35;100163.78;;;19.46;87.99
43420;BME280;29017;51.514;-0.178;2023-07-28T06:49:03;100164.38;;;19.48;87.90
43420;BME280;29017;51.514;-0.178;2023-07-28T06:51:30;100162.53;;;19.49;88.20
43420;BME280;29017;51.514;-0.178;2023-07-28T06:53:57;100161.09;;;19.46;88.36
43420;BME280;29017;51.514;-0.178;2023-07-28T06:56:32;100168.28;;;19.46;88.25
43420;BME280;29017;51.514;-0.178;2023-07-28T06:59:00;100173.41;;;19.47;88.14
43420;BME280;29017;51.514;-0.178;2023-07-28T07:01:41;100172.38;;;19.48;88.36
43420;BME280;29017;51.514;-0.178;2023-07-28T07:04:08;100180.16;;;19.50;88.38
43420;BME280;29017;51.514;-0.178;2023-07-28T07:06:35;100184.44;;;19.51;88.56
43420;BME280;29017;51.514;-0.178;2023-07-28T07:09:02;100184.31;;;19.46;88.01
43420;BME280;29017;51.514;-0.178;2023-07-28T07:11:30;100181.63;;;19.46;88.11
43420;BME280;29017;51.514;-0.178;2023-07-28T07:13:59;100179.56;;;19.48;88.00
43420;BME280;29017;51.514;-0.178;2023-07-28T07:16:35;100182.84;;;19.50;88.27
43420;BME280;29017;51.514;-0.178;2023-07-28T07:19:03;100187.94;;;19.51;88.16
43420;BME280;29017;51.514;-0.178;2023-07-28T07:21:31;100184.00;;;19.54;87.43
43420;BME280;29017;51.514;-0.178;2023-07-28T07:23:58;100192.16;;;19.59;87.67
43420;BME280;29017;51.514;-0.178;2023-07-28T07:26:31;100192.72;;;19.61;88.00
43420;BME280;29017;51.514;-0.178;2023-07-28T07:28:58;100193.53;;;19.61;87.46
43420;BME280;29017;51.514;-0.178;2023-07-28T07:31:25;100202.34;;;19.62;87.41
43420;BME280;29017;51.514;-0.178;2023-07-28T07:33:52;100194.13;;;19.63;87.34
43420;BME280;29017;51.514;-0.178;2023-07-28T07:36:20;100201.66;;;19.67;88.25
43420;BME280;29017;51.514;-0.178;2023-07-28T07:38:47;100202.63;;;19.72;88.38
43420;BME280;29017;51.514;-0.178;2023-07-28T07:41:15;100200.75;;;19.73;87.87
43420;BME280;29017;51.514;-0.178;2023-07-28T07:43:49;100199.72;;;19.74;87.81
43420;BME280;29017;51.514;-0.178;2023-07-28T07:46:16;100205.66;;;19.76;87.40
43420;BME280;29017;51.514;-0.178;2023-07-28T07:48:43;100202.53;;;19.79;87.08
43420;BME280;29017;51.514;-0.178;2023-07-28T07:51:10;100199.88;;;19.79;86.91
43420;BME280;29017;51.514;-0.178;2023-07-28T07:53:38;100200.09;;;19.77;86.21
43420;BME280;29017;51.514;-0.178;2023-07-28T07:56:06;100195.56;;;19.78;86.17
43420;BME280;29017;51.514;-0.178;2023-07-28T07:58:34;100201.25;;;19.81;86.25
43420;BME280;29017;51.514;-0.178;2023-07-28T08:01:02;100191.50;;;19.87;85.87
43420;BME280;29017;51.514;-0.178;2023-07-28T08:03:29;100192.91;;;19.89;85.42
43420;BME280;29017;51.514;-0.178;2023-07-28T08:05:56;100190.69;;;19.86;84.99
43420;BME280;29017;51.514;-0.178;2023-07-28T08:08:24;100200.22;;;19.82;84.69
43420;BME280;29017;51.514;-0.178;2023-07-28T08:10:54;100196.59;;;19.77;84.50
43420;BME280;29017;51.514;-0.178;2023-07-28T08:13:21;100199.63;;;19.80;84.82
43420;BME280;29017;51.514;-0.178;2023-07-28T08:15:49;100203.13;;;19.81;85.14
43420;BME280;29017;51.514;-0.178;2023-07-28T08:18:16;100192.78;;;19.84;85.08
43420;BME280;29017;51.514;-0.178;2023-07-28T08:20:43;100196.63;;;19.88;85.01
43420;BME280;29017;51.514;-0.178;2023-07-28T08:23:10;100200.72;;;19.91;84.84
43420;BME280;29017;51.514;-0.178;2023-07-28T08:25:37;100205.59;;;19.94;84.86
43420;BME280;29017;51.514;-0.178;2023-07-28T08:28:04;100210.25;;;19.98;84.91
43420;BME280;29017;51.514;-0.178;2023-07-28T08:30:32;100199.69;;;20.03;85.52
43420;BME280;29017;51.514;-0.178;2023-07-28T08:32:59;100205.63;;;20.05;85.62
43420;BME280;29017;51.514;-0.178;2023-07-28T08:35:26;100213.16;;;20.08;85.88
43420;BME280;29017;51.514;-0.178;2023-07-28T08:37:53;100207.13;;;20.13;86.03
43420;BME280;29017;51.514;-0.178;2023-07-28T08:40:20;100208.88;;;20.19;85.86
43420;BME280;29017;51.514;-0.178;2023-07-28T08:42:47;100207.03;;;20.20;85.31
43420;BME280;29017;51.514;-0.178;2023-07-28T08:45:17;100214.00;;;20.21;85.01
43420;BME280;29017;51.514;-0.178;2023-07-28T08:47:45;100212.72;;;20.23;85.58
43420;BME280;29017;51.514;-0.178;2023-07-28T08:50:12;100210.16;;;20.28;86.31
43420;BME280;29017;51.514;-0.178;2023-07-28T08:52:40;100208.44;;;20.34;85.64
43420;BME280;29017;51.514;-0.178;2023-07-28T08:55:07;100203.09;;;20.34;84.57
43420;BME280;29017;51.514;-0.178;2023-07-28T08:57:34;100204.97;;;20.33;84.70
43420;BME280;29017;51.514;-0.178;2023-07-28T09:00:08;100203.44;;;20.37;85.05
43420;BME280;29017;51.514;-0.178;2023-07-28T09:02:37;100204.25;;;20.38;84.54
43420;BME280;29017;51.514;-0.178;2023-07-28T09:05:04;100208.09;;;20.42;84.62
43420;BME280;29017;51.514;-0.178;2023-07-28T09:07:35;100204.75;;;20.46;85.22
43420;BME280;29017;51.514;-0.178;2023-07-28T09:10:04;100208.81;;;20.49;84.97
43420;BME280;29017;51.514;-0.178;2023-07-28T09:12:32;100206.72;;;20.51;84.82
43420;BME280;29017;51.514;-0.178;2023-07-28T09:14:59;100208.31;;;20.52;84.58
43420;BME280;29017;51.514;-0.178;2023-07-28T09:17:26;100203.34;;;20.56;85.33
43420;BME280;29017;51.514;-0.178;2023-07-28T09:19:55;100211.09;;;20.57;85.12
43420;BME280;29017;51.514;-0.178;2023-07-28T09:22:23;100207.16;;;20.60;85.74
43420;BME280;29017;51.514;-0.178;2023-07-28T09:24:51;100206.94;;;20.61;85.23
43420;BME280;29017;51.514;-0.178;2023-07-28T09:27:24;100213.34;;;20.60;84.54
43420;BME280;29017;51.514;-0.178;2023-07-28T09:29:53;100205.31;;;20.60;84.38
43420;BME280;29017;51.514;-0.178;2023-07-28T09:32:32;100202.41;;;20.62;85.00
43420;BME280;29017;51.514;-0.178;2023-07-28T09:35:13;100200.53;;;20.62;85.13
43420;BME280;29017;51.514;-0.178;2023-07-28T09:37:45;100203.78;;;20.64;85.52
43420;BME280;29017;51.514;-0.178;2023-07-28T09:40:14;100207.50;;;20.63;84.83
43420;BME280;29017;51.514;-0.178;2023-07-28T09:42:43;100205.66;;;20.64;84.83
43420;BME280;29017;51.514;-0.178;2023-07-28T09:45:11;100213.09;;;20.62;84.74
43420;BME280;29017;51.514;-0.178;2023-07-28T09:48:01;100202.88;;;20.59;85.01
43420;BME280;29017;51.514;-0.178;2023-07-28T09:50:32;100205.88;;;20.62;84.62
43420;BME280;29017;51.514;-0.178;2023-07-28T09:53:02;100200.78;;;20.61;84.80
43420;BME280;29017;51.514;-0.178;2023-07-28T09:55:30;100210.44;;;20.62;84.77
43420;BME280;29017;51.514;-0.178;2023-07-28T09:57:58;100206.94;;;20.61;84.29
43420;BME280;29017;51.514;-0.178;2023-07-28T10:00:28;100206.94;;;20.61;83.75
43420;BME280;29017;51.514;-0.178;2023-07-28T10:02:56;100209.72;;;20.66;84.18
43420;BME280;29017;51.514;-0.178;2023-07-28T10:05:25;100209.84;;;20.71;84.12
43420;BME280;29017;51.514;-0.178;2023-07-28T10:07:56;100209.94;;;20.76;84.13
43420;BME280;29017;51.514;-0.178;2023-07-28T10:10:23;100209.94;;;20.76;82.66
43420;BME280;29017;51.514;-0.178;2023-07-28T10:12:52;100214.00;;;20.79;81.63
43420;BME280;29017;51.514;-0.178;2023-07-28T10:15:20;100215.03;;;20.78;81.34
43420;BME280;29017;51.514;-0.178;2023-07-28T10:17:50;100212.97;;;20.80;81.52
43420;BME280;29017;51.514;-0.178;2023-07-28T10:20:33;100221.81;;;20.80;81.27
43420;BME280;29017;51.514;-0.178;2023-07-28T10:23:06;100219.94;;;20.81;81.41
43420;BME280;29017;51.514;-0.178;2023-07-28T10:25:35;100219.34;;;20.79;81.72
43420;BME280;29017;51.514;-0.178;2023-07-28T10:28:04;100224.47;;;20.80;81.80
43420;BME280;29017;51.514;-0.178;2023-07-28T10:30:36;100227.50;;;20.84;81.79
43420;BME280;29017;51.514;-0.178;2023-07-28T10:33:04;100228.09;;;20.86;82.03
43420;BME280;29017;51.514;-0.178;2023-07-28T10:35:31;100230.28;;;20.89;82.21
43420;BME280;29017;51.514;-0.178;2023-07-28T10:38:39;100233.06;;;20.94;82.79
43420;BME280;29017;51.514;-0.178;2023-07-28T10:41:08;100234.91;;;20.93;82.62
43420;BME280;29017;51.514;-0.178;2023-07-28T10:43:38;100227.97;;;20.92;82.23
43420;BME280;29017;51.514;-0.178;2023-07-28T10:46:10;100227.97;;;20.92;82.64
43420;BME280;29017;51.514;-0.178;2023-07-28T10:48:47;100231.41;;;20.93;82.56
43420;BME280;29017;51.514;-0.178;2023-07-28T10:51:22;100229.22;;;20.90;81.36
43420;BME280;29017;51.514;-0.178;2023-07-28T10:53:55;100229.72;;;20.87;81.12
43420;BME280;29017;51.514;-0.178;2023-07-28T10:56:26;100225.41;;;20.86;81.47
43420;BME280;29017;51.514;-0.178;2023-07-28T10:58:57;100223.28;;;20.88;81.73
43420;BME280;29017;51.514;-0.178;2023-07-28T11:01:30;100224.09;;;20.88;81.59
43420;BME280;29017;51.514;-0.178;2023-07-28T11:04:12;100224.09;;;20.88;81.95
43420;BME280;29017;51.514;-0.178;2023-07-28T11:06:43;100233.53;;;20.91;81.97
43420;BME280;29017;51.514;-0.178;2023-07-28T11:09:11;100236.22;;;20.91;81.40
43420;BME280;29017;51.514;-0.178;2023-07-28T11:11:39;100231.09;;;20.89;81.86
43420;BME280;29017;51.514;-0.178;2023-07-28T11:14:11;100240.16;;;20.88;81.92
43420;BME280;29017;51.514;-0.178;2023-07-28T11:16:41;100243.91;;;20.87;81.65
43420;BME280;29017;51.514;-0.178;2023-07-28T11:19:10;100243.66;;;20.89;82.56
43420;BME280;29017;51.514;-0.178;2023-07-28T11:21:39;100245.28;;;20.90;82.67
43420;BME280;29017;51.514;-0.178;2023-07-28T11:24:07;100250.84;;;20.88;82.73
43420;BME280;29017;51.514;-0.178;2023-07-28T11:26:39;100248.44;;;20.87;82.96
43420;BME280;29017;51.514;-0.178;2023-07-28T11:29:07;100239.34;;;20.88;83.41
43420;BME280;29017;51.514;-0.178;2023-07-28T11:31:34;100249.38;;;20.92;83.97
43420;BME280;29017;51.514;-0.178;2023-07-28T11:34:01;100256.09;;;20.95;83.51
43420;BME280;29017;51.514;-0.178;2023-07-28T11:36:36;100256.91;;;20.96;83.22
43420;BME280;29017;51.514;-0.178;2023-07-28T11:39:09;100251.06;;;20.99;83.21
43420;BME280;29017;51.514;-0.178;2023-07-28T11:41:38;100247.69;;;21.03;83.35
43420;BME280;29017;51.514;-0.178;2023-07-28T11:44:06;100248.63;;;21.09;83.78
43420;BME280;29017;51.514;-0.178;2023-07-28T11:46:42;100246.66;;;21.16;83.56
43420;BME280;29017;51.514;-0.178;2023-07-28T11:49:19;100239.78;;;21.20;83.17
43420;BME280;29017;51.514;-0.178;2023-07-28T11:51:51;100249.31;;;21.27;82.57
43420;BME280;29017;51.514;-0.178;2023-07-28T11:54:21;100242.75;;;21.35;82.02
43420;BME280;29017;51.514;-0.178;2023-07-28T11:56:50;100238.09;;;21.42;80.68
43420;BME280;29017;51.514;-0.178;2023-07-28T11:59:19;100233.97;;;21.51;80.96
43420;BME280;29017;51.514;-0.178;2023-07-28T12:01:56;100234.16;;;21.61;81.03
43420;BME280;29017;51.514;-0.178;2023-07-28T12:04:28;100228.91;;;21.66;79.62
43420;BME280;29017;51.514;-0.178;2023-07-28T12:07:06;100228.50;;;21.74;78.87
43420;BME280;29017;51.514;-0.178;2023-07-28T12:09:48;100227.53;;;21.81;77.63
43420;BME280;29017;51.514;-0.178;2023-07-28T12:12:29;100227.41;;;21.87;77.92
43420;BME280;29017;51.514;-0.178;2023-07-28T12:15:26;100228.66;;;21.96;77.79
43420;BME280;29017;51.514;-0.178;2023-07-28T12:18:13;100234.44;;;22.05;78.81
43420;BME280;29017;51.514;-0.178;2023-07-28T12:20:45;100229.97;;;22.10;77.89
43420;BME280;29017;51.514;-0.178;2023-07-28T12:23:18;100236.72;;;22.13;77.12
43420;BME280;29017;51.514;-0.178;2023-07-28T12:25:49;100224.94;;;22.14;76.79
43420;BME280;29017;51.514;-0.178;2023-07-28T12:28:17;100232.19;;;22.13;76.38
43420;BME280;29017;51.514;-0.178;2023-07-28T12:30:46;100230.53;;;22.12;76.70
43420;BME280;29017;51.514;-0.178;2023-07-28T12:33:16;100233.47;;;22.11;77.07
43420;BME280;29017;51.514;-0.178;2023-07-28T12:35:47;100233.97;;;22.08;76.74
43420;BME280;29017;51.514;-0.178;2023-07-28T12:38:16;100230.47;;;22.07;76.98
43420;BME280;29017;51.514;-0.178;2023-07-28T12:40:46;100242.47;;;22.05;77.27
43420;BME280;29017;51.514;-0.178;2023-07-28T12:43:16;100237.91;;;22.05;77.58
43420;BME280;29017;51.514;-0.178;2023-07-28T12:45:46;100239.56;;;22.06;77.77
43420;BME280;29017;51.514;-0.178;2023-07-28T12:48:17;100239.31;;;22.08;77.26
43420;BME280;29017;51.514;-0.178;2023-07-28T12:50:47;100240.38;;;22.07;77.70
43420;BME280;29017;51.514;-0.178;2023-07-28T12:53:14;100238.28;;;22.09;76.88
43420;BME280;29017;51.514;-0.178;2023-07-28T12:55:48;100232.91;;;22.09;77.21
43420;BME280;29017;51.514;-0.178;2023-07-28T12:58:18;100228.69;;;22.13;77.19